sensor_id;sensor_type;location;lat;lon;timestamp;temperature;humidity
36292;DHT22;22327;51.208;6.418;2023-08-21T00:02:11;22.70;93.40
36292;DHT22;22327;51.208;6.418;2023-08-21T00:05:11;22.70;93.70
36292;DHT22;22327;51.208;6.418;2023-08-21T00:08:12;22.60;94.10
36292;DHT22;22327;51.208;6.418;2023-08-21T00:11:12;22.50;94.30
36292;DHT22;22327;51.208;6.418;2023-08-21T00:14:13;22.50;94.60
36292;DHT22;22327;51.208;6.418;2023-08-21T00:17:13;22.40;94.80
36292;DHT22;22327;51.208;6.418;2023-08-21T00:20:14;22.40;94.90
36292;DHT22;22327;51.208;6.418;2023-08-21T00:23:14;22.40;95.20
36292;DHT22;22327;51.208;6.418;2023-08-21T00:26:15;22.40;95.40
36292;DHT22;22327;51.208;6.418;2023-08-21T00:29:15;22.30;95.50
36292;DHT22;22327;51.208;6.418;2023-08-21T00:32:16;22.30;95.80
36292;DHT22;22327;51.208;6.418;2023-08-21T00:35:17;22.30;95.90
36292;DHT22;22327;51.208;6.418;2023-08-21T00:38:17;22.30;95.90
36292;DHT22;22327;51.208;6.418;2023-08-21T00:41:18;22.20;96.10
36292;DHT22;22327;51.208;6.418;2023-08-21T00:44:19;22.20;96.20
36292;DHT22;22327;51.208;6.418;2023-08-21T00:47:19;22.10;96.40
36292;DHT22;22327;51.208;6.418;2023-08-21T00:50:20;22.10;96.50
36292;DHT22;22327;51.208;6.418;2023-08-21T00:53:21;22.20;96.60
36292;DHT22;22327;51.208;6.418;2023-08-21T00:56:21;22.10;96.70
36292;DHT22;22327;51.208;6.418;2023-08-21T00:59:22;22.10;96.80
36292;DHT22;22327;51.208;6.418;2023-08-21T01:02:22;22.10;96.80
36292;DHT22;22327;51.208;6.418;2023-08-21T01:05:23;22.10;96.90
36292;DHT22;22327;51.208;6.418;2023-08-21T01:08:50;22.00;96.90
36292;DHT22;22327;51.208;6.418;2023-08-21T01:15:16;22.00;97.00
36292;DHT22;22327;51.208;6.418;2023-08-21T01:18:18;22.00;97.10
36292;DHT22;22327;51.208;6.418;2023-08-21T01:21:19;22.00;97.30
36292;DHT22;22327;51.208;6.418;2023-08-21T01:24:20;22.00;97.40
36292;DHT22;22327;51.208;6.418;2023-08-21T01:27:21;21.90;97.40
36292;DHT22;22327;51.208;6.418;2023-08-21T01:30:21;21.90;97.40
36292;DHT22;22327;51.208;6.418;2023-08-21T01:33:22;21.90;97.40
36292;DHT22;22327;51.208;6.418;2023-08-21T01:36:25;21.90;97.50
36292;DHT22;22327;51.208;6.418;2023-08-21T01:39:25;21.90;97.50
36292;DHT22;22327;51.208;6.418;2023-08-21T01:42:26;21.90;97.40
36292;DHT22;22327;51.208;6.418;2023-08-21T01:45:27;22.00;97.50
36292;DHT22;22327;51.208;6.418;2023-08-21T01:48:28;21.90;97.30
36292;DHT22;22327;51.208;6.418;2023-08-21T01:51:28;21.90;97.40
36292;DHT22;22327;51.208;6.418;2023-08-21T01:54:29;21.90;97.30
36292;DHT22;22327;51.208;6.418;2023-08-21T01:57:29;21.90;97.40
36292;DHT22;22327;51.208;6.418;2023-08-21T02:00:30;21.80;97.50
36292;DHT22;22327;51.208;6.418;2023-08-21T02:03:30;21.80;97.60
36292;DHT22;22327;51.208;6.418;2023-08-21T02:06:31;21.80;97.60
36292;DHT22;22327;51.208;6.418;2023-08-21T02:09:31;21.90;97.60
36292;DHT22;22327;51.208;6.418;2023-08-21T02:12:32;22.00;97.50
36292;DHT22;22327;51.208;6.418;2023-08-21T02:15:32;21.90;97.50
36292;DHT22;22327;51.208;6.418;2023-08-21T02:18:33;21.80;97.50
36292;DHT22;22327;51.208;6.418;2023-08-21T02:21:34;21.80;97.50
36292;DHT22;22327;51.208;6.418;2023-08-21T02:24:35;21.80;97.70
36292;DHT22;22327;51.208;6.418;2023-08-21T02:27:35;21.80;97.70
36292;DHT22;22327;51.208;6.418;2023-08-21T02:30:39;21.70;97.70
36292;DHT22;22327;51.208;6.418;2023-08-21T02:33:39;21.70;97.80
36292;DHT22;22327;51.208;6.418;2023-08-21T02:36:40;21.70;97.80
36292;DHT22;22327;51.208;6.418;2023-08-21T02:39:40;21.70;97.80
36292;DHT22;22327;51.208;6.418;2023-08-21T02:42:41;21.70;97.80
36292;DHT22;22327;51.208;6.418;2023-08-21T02:45:41;21.70;97.80
36292;DHT22;22327;51.208;6.418;2023-08-21T02:48:42;21.50;97.90
36292;DHT22;22327;51.208;6.418;2023-08-21T02:51:43;21.50;98.10
36292;DHT22;22327;51.208;6.418;2023-08-21T02:54:43;21.50;98.10
36292;DHT22;22327;51.208;6.418;2023-08-21T02:57:44;21.50;98.10
36292;DHT22;22327;51.208;6.418;2023-08-21T03:00:45;21.60;98.00
36292;DHT22;22327;51.208;6.418;2023-08-21T03:03:45;21.50;97.90
36292;DHT22;22327;51.208;6.418;2023-08-21T03:06:46;21.60;97.90
36292;DHT22;22327;51.208;6.418;2023-08-21T03:09:47;21.60;97.90
36292;DHT22;22327;51.208;6.418;2023-08-21T03:12:47;21.60;97.90
36292;DHT22;22327;51.208;6.418;2023-08-21T03:15:48;21.50;98.00
36292;DHT22;22327;51.208;6.418;2023-08-21T03:21:56;21.50;98.10
36292;DHT22;22327;51.208;6.418;2023-08-21T03:24:56;21.40;98.10
36292;DHT22;22327;51.208;6.418;2023-08-21T03:27:57;21.50;98.10
36292;DHT22;22327;51.208;6.418;2023-08-21T03:30:57;21.50;98.00
36292;DHT22;22327;51.208;6.418;2023-08-21T03:33:58;21.50;98.00
36292;DHT22;22327;51.208;6.418;2023-08-21T03:36:58;21.50;97.90
36292;DHT22;22327;51.208;6.418;2023-08-21T03:39:59;21.50;98.00
36292;DHT22;22327;51.208;6.418;2023-08-21T03:42:59;21.50;98.00
36292;DHT22;22327;51.208;6.418;2023-08-21T03:46:00;21.50;98.00
36292;DHT22;22327;51.208;6.418;2023-08-21T03:49:00;21.40;98.00
36292;DHT22;22327;51.208;6.418;2023-08-21T03:52:01;21.40;98.10
36292;DHT22;22327;51.208;6.418;2023-08-21T03:55:01;21.40;98.10
36292;DHT22;22327;51.208;6.418;2023-08-21T03:58:02;21.40;97.90
36292;DHT22;22327;51.208;6.418;2023-08-21T04:01:03;21.40;98.00
36292;DHT22;22327;51.208;6.418;2023-08-21T04:04:03;21.40;97.80
36292;DHT22;22327;51.208;6.418;2023-08-21T04:07:04;21.50;97.80
36292;DHT22;22327;51.208;6.418;2023-08-21T04:10:05;21.50;97.80
36292;DHT22;22327;51.208;6.418;2023-08-21T04:13:06;21.50;97.70
36292;DHT22;22327;51.208;6.418;2023-08-21T04:16:06;21.50;97.60
36292;DHT22;22327;51.208;6.418;2023-08-21T04:19:07;21.50;97.60
36292;DHT22;22327;51.208;6.418;2023-08-21T04:22:07;21.50;97.70
36292;DHT22;22327;51.208;6.418;2023-08-21T04:25:08;21.50;97.60
36292;DHT22;22327;51.208;6.418;2023-08-21T04:28:09;21.50;97.70
36292;DHT22;22327;51.208;6.418;2023-08-21T04:31:09;21.50;97.60
36292;DHT22;22327;51.208;6.418;2023-08-21T04:34:10;21.60;97.70
36292;DHT22;22327;51.208;6.418;2023-08-21T04:37:10;21.70;97.40
36292;DHT22;22327;51.208;6.418;2023-08-21T04:40:11;21.70;97.30
36292;DHT22;22327;51.208;6.418;2023-08-21T04:43:12;21.60;97.30
36292;DHT22;22327;51.208;6.418;2023-08-21T04:46:12;21.60;97.40
36292;DHT22;22327;51.208;6.418;2023-08-21T04:49:13;21.50;97.50
36292;DHT22;22327;51.208;6.418;2023-08-21T04:52:13;21.50;97.40
36292;DHT22;22327;51.208;6.418;2023-08-21T04:55:14;21.60;97.50
36292;DHT22;22327;51.208;6.418;2023-08-21T04:58:14;21.50;97.50
36292;DHT22;22327;51.208;6.418;2023-08-21T05:01:15;21.60;97.50
36292;DHT22;22327;51.208;6.418;2023-08-21T05:04:15;21.60;97.50
36292;DHT22;22327;51.208;6.418;2023-08-21T05:07:16;21.50;97.50
36292;DHT22;22327;51.208;6.418;2023-08-21T05:10:17;21.60;97.50
36292;DHT22;22327;51.208;6.418;2023-08-21T05:13:17;21.60;97.50
36292;DHT22;22327;51.208;6.418;2023-08-21T05:16:18;21.70;97.40
36292;DHT22;22327;51.208;6.418;2023-08-21T05:19:18;21.80;97.30
36292;DHT22;22327;51.208;6.418;2023-08-21T05:22:19;21.80;97.20
36292;DHT22;22327;51.208;6.418;2023-08-21T05:25:19;21.90;97.20
36292;DHT22;22327;51.208;6.418;2023-08-21T05:28:20;22.00;97.30
36292;DHT22;22327;51.208;6.418;2023-08-21T05:31:20;22.10;97.30
36292;DHT22;22327;51.208;6.418;2023-08-21T05:34:21;22.30;97.30
36292;DHT22;22327;51.208;6.418;2023-08-21T05:37:21;22.60;97.30
36292;DHT22;22327;51.208;6.418;2023-08-21T05:40:22;22.90;97.50
36292;DHT22;22327;51.208;6.418;2023-08-21T05:43:22;23.70;97.40
36292;DHT22;22327;51.208;6.418;2023-08-21T05:46:23;24.30;95.90
36292;DHT22;22327;51.208;6.418;2023-08-21T05:49:23;25.00;94.90
36292;DHT22;22327;51.208;6.418;2023-08-21T05:52:24;25.70;93.60
36292;DHT22;22327;51.208;6.418;2023-08-21T05:55:24;26.40;92.20
36292;DHT22;22327;51.208;6.418;2023-08-21T05:58:25;27.10;91.70
36292;DHT22;22327;51.208;6.418;2023-08-21T06:01:30;27.80;89.80
36292;DHT22;22327;51.208;6.418;2023-08-21T06:04:30;28.30;89.90
36292;DHT22;22327;51.208;6.418;2023-08-21T06:07:32;29.20;87.90
36292;DHT22;22327;51.208;6.418;2023-08-21T06:10:33;30.10;84.10
36292;DHT22;22327;51.208;6.418;2023-08-21T06:13:33;30.80;80.50
36292;DHT22;22327;51.208;6.418;2023-08-21T06:16:34;31.60;76.90
36292;DHT22;22327;51.208;6.418;2023-08-21T06:19:34;31.90;70.80
36292;DHT22;22327;51.208;6.418;2023-08-21T06:22:35;31.90;69.00
36292;DHT22;22327;51.208;6.418;2023-08-21T06:25:36;31.90;67.90
36292;DHT22;22327;51.208;6.418;2023-08-21T06:28:37;32.30;67.20
36292;DHT22;22327;51.208;6.418;2023-08-21T06:31:37;32.70;65.50
36292;DHT22;22327;51.208;6.418;2023-08-21T06:34:38;32.90;63.00
36292;DHT22;22327;51.208;6.418;2023-08-21T06:37:38;33.20;63.00
36292;DHT22;22327;51.208;6.418;2023-08-21T06:40:39;33.80;59.90
36292;DHT22;22327;51.208;6.418;2023-08-21T06:43:39;34.20;58.10
36292;DHT22;22327;51.208;6.418;2023-08-21T06:46:40;34.60;57.60
36292;DHT22;22327;51.208;6.418;2023-08-21T06:49:41;34.90;55.50
36292;DHT22;22327;51.208;6.418;2023-08-21T06:52:41;35.00;53.90
36292;DHT22;22327;51.208;6.418;2023-08-21T06:55:44;35.00;52.50
36292;DHT22;22327;51.208;6.418;2023-08-21T06:58:45;35.30;53.00
36292;DHT22;22327;51.208;6.418;2023-08-21T07:01:46;35.60;51.40
36292;DHT22;22327;51.208;6.418;2023-08-21T07:04:47;35.70;51.00
36292;DHT22;22327;51.208;6.418;2023-08-21T07:07:47;35.80;48.70
36292;DHT22;22327;51.208;6.418;2023-08-21T07:10:48;35.90;49.60
36292;DHT22;22327;51.208;6.418;2023-08-21T07:13:49;36.30;47.70
36292;DHT22;22327;51.208;6.418;2023-08-21T07:16:49;35.80;46.80
36292;DHT22;22327;51.208;6.418;2023-08-21T07:19:50;35.60;46.60
36292;DHT22;22327;51.208;6.418;2023-08-21T07:22:53;35.50;47.40
36292;DHT22;22327;51.208;6.418;2023-08-21T07:25:53;35.70;47.30
36292;DHT22;22327;51.208;6.418;2023-08-21T07:28:54;35.70;46.60
36292;DHT22;22327;51.208;6.418;2023-08-21T07:31:54;35.40;46.90
36292;DHT22;22327;51.208;6.418;2023-08-21T07:34:55;35.40;46.90
36292;DHT22;22327;51.208;6.418;2023-08-21T07:37:56;35.50;46.20
36292;DHT22;22327;51.208;6.418;2023-08-21T07:41:04;35.70;46.40
36292;DHT22;22327;51.208;6.418;2023-08-21T07:44:05;35.80;45.70
36292;DHT22;22327;51.208;6.418;2023-08-21T07:47:06;36.20;45.50
36292;DHT22;22327;51.208;6.418;2023-08-21T07:50:07;36.50;44.60
36292;DHT22;22327;51.208;6.418;2023-08-21T07:53:07;36.90;44.60
36292;DHT22;22327;51.208;6.418;2023-08-21T07:56:08;37.40;44.00
36292;DHT22;22327;51.208;6.418;2023-08-21T07:59:08;37.90;41.90
36292;DHT22;22327;51.208;6.418;2023-08-21T08:02:09;37.80;41.70
36292;DHT22;22327;51.208;6.418;2023-08-21T08:05:12;38.30;43.10
36292;DHT22;22327;51.208;6.418;2023-08-21T08:08:12;38.60;40.20
36292;DHT22;22327;51.208;6.418;2023-08-21T08:11:13;38.60;41.30
36292;DHT22;22327;51.208;6.418;2023-08-21T08:14:13;39.10;40.10
36292;DHT22;22327;51.208;6.418;2023-08-21T08:17:14;39.10;40.20
36292;DHT22;22327;51.208;6.418;2023-08-21T08:20:14;39.50;39.40
36292;DHT22;22327;51.208;6.418;2023-08-21T08:23:15;39.60;38.80
36292;DHT22;22327;51.208;6.418;2023-08-21T08:26:15;39.60;38.30
36292;DHT22;22327;51.208;6.418;2023-08-21T08:29:17;39.60;39.00
36292;DHT22;22327;51.208;6.418;2023-08-21T08:32:17;39.60;38.30
36292;DHT22;22327;51.208;6.418;2023-08-21T08:35:18;39.50;38.20
36292;DHT22;22327;51.208;6.418;2023-08-21T08:38:19;39.60;37.80
36292;DHT22;22327;51.208;6.418;2023-08-21T08:41:28;39.60;37.30
36292;DHT22;22327;51.208;6.418;2023-08-21T08:44:30;39.80;37.40
36292;DHT22;22327;51.208;6.418;2023-08-21T08:47:32;39.70;36.50
36292;DHT22;22327;51.208;6.418;2023-08-21T08:50:37;39.50;37.00
36292;DHT22;22327;51.208;6.418;2023-08-21T08:53:39;40.00;37.50
36292;DHT22;22327;51.208;6.418;2023-08-21T08:56:40;40.40;36.50
36292;DHT22;22327;51.208;6.418;2023-08-21T08:59:41;40.40;36.40
36292;DHT22;22327;51.208;6.418;2023-08-21T09:02:41;40.50;36.30
36292;DHT22;22327;51.208;6.418;2023-08-21T09:05:42;40.90;35.40
36292;DHT22;22327;51.208;6.418;2023-08-21T09:08:53;40.80;35.00
36292;DHT22;22327;51.208;6.418;2023-08-21T09:11:54;41.00;34.90
36292;DHT22;22327;51.208;6.418;2023-08-21T09:14:55;41.00;33.80
36292;DHT22;22327;51.208;6.418;2023-08-21T09:17:56;41.00;34.50
36292;DHT22;22327;51.208;6.418;2023-08-21T09:20:57;40.90;34.40
36292;DHT22;22327;51.208;6.418;2023-08-21T09:23:59;40.70;34.70
36292;DHT22;22327;51.208;6.418;2023-08-21T09:27:00;40.70;35.00
36292;DHT22;22327;51.208;6.418;2023-08-21T09:30:11;40.80;34.20
36292;DHT22;22327;51.208;6.418;2023-08-21T09:33:20;41.00;35.40
36292;DHT22;22327;51.208;6.418;2023-08-21T09:36:21;41.10;34.70
36292;DHT22;22327;51.208;6.418;2023-08-21T09:39:22;41.40;34.20
36292;DHT22;22327;51.208;6.418;2023-08-21T09:42:23;41.40;33.90
36292;DHT22;22327;51.208;6.418;2023-08-21T09:45:25;41.50;34.30
36292;DHT22;22327;51.208;6.418;2023-08-21T09:48:26;41.50;34.40
36292;DHT22;22327;51.208;6.418;2023-08-21T09:51:33;41.60;33.50
36292;DHT22;22327;51.208;6.418;2023-08-21T09:54:34;41.10;33.10
36292;DHT22;22327;51.208;6.418;2023-08-21T09:57:35;40.00;34.00
36292;DHT22;22327;51.208;6.418;2023-08-21T10:00:37;39.00;35.20
36292;DHT22;22327;51.208;6.418;2023-08-21T10:03:38;38.20;36.70
36292;DHT22;22327;51.208;6.418;2023-08-21T10:06:40;37.60;37.90
36292;DHT22;22327;51.208;6.418;2023-08-21T10:09:41;36.90;38.50
36292;DHT22;22327;51.208;6.418;2023-08-21T10:12:42;36.10;39.50
36292;DHT22;22327;51.208;6.418;2023-08-21T10:15:43;35.20;41.10
36292;DHT22;22327;51.208;6.418;2023-08-21T10:18:45;34.30;42.20
36292;DHT22;22327;51.208;6.418;2023-08-21T10:21:47;33.80;44.40
36292;DHT22;22327;51.208;6.418;2023-08-21T10:24:49;33.50;45.50
36292;DHT22;22327;51.208;6.418;2023-08-21T10:27:52;33.10;45.50
36292;DHT22;22327;51.208;6.418;2023-08-21T10:30:53;32.80;46.00
36292;DHT22;22327;51.208;6.418;2023-08-21T10:33:54;32.80;47.30
36292;DHT22;22327;51.208;6.418;2023-08-21T10:37:10;32.50;47.10
36292;DHT22;22327;51.208;6.418;2023-08-21T10:40:22;32.30;47.80
36292;DHT22;22327;51.208;6.418;2023-08-21T10:43:40;32.10;48.60
36292;DHT22;22327;51.208;6.418;2023-08-21T10:46:51;31.90;48.20
36292;DHT22;22327;51.208;6.418;2023-08-21T10:49:54;31.70;48.40
36292;DHT22;22327;51.208;6.418;2023-08-21T10:52:54;31.80;48.80
36292;DHT22;22327;51.208;6.418;2023-08-21T10:55:55;31.70;48.80
36292;DHT22;22327;51.208;6.418;2023-08-21T10:58:56;31.60;48.30
36292;DHT22;22327;51.208;6.418;2023-08-21T11:01:56;31.60;49.30
36292;DHT22;22327;51.208;6.418;2023-08-21T11:04:58;31.60;49.20
36292;DHT22;22327;51.208;6.418;2023-08-21T11:07:59;31.20;48.10
36292;DHT22;22327;51.208;6.418;2023-08-21T11:11:04;31.00;48.60
36292;DHT22;22327;51.208;6.418;2023-08-21T11:14:05;30.90;49.30
36292;DHT22;22327;51.208;6.418;2023-08-21T11:17:07;30.70;49.60
36292;DHT22;22327;51.208;6.418;2023-08-21T11:20:08;30.50;50.20
36292;DHT22;22327;51.208;6.418;2023-08-21T11:23:08;30.30;51.20
36292;DHT22;22327;51.208;6.418;2023-08-21T11:26:12;30.20;51.50
36292;DHT22;22327;51.208;6.418;2023-08-21T11:29:13;30.10;51.90
36292;DHT22;22327;51.208;6.418;2023-08-21T11:32:14;30.00;51.90
36292;DHT22;22327;51.208;6.418;2023-08-21T11:35:15;30.00;52.30
36292;DHT22;22327;51.208;6.418;2023-08-21T11:38:18;30.10;53.20
36292;DHT22;22327;51.208;6.418;2023-08-21T11:41:18;30.40;52.60
36292;DHT22;22327;51.208;6.418;2023-08-21T11:44:19;30.50;52.70
36292;DHT22;22327;51.208;6.418;2023-08-21T11:47:22;30.60;52.50
36292;DHT22;22327;51.208;6.418;2023-08-21T11:50:23;30.70;53.10
36292;DHT22;22327;51.208;6.418;2023-08-21T11:56:34;30.60;52.60
36292;DHT22;22327;51.208;6.418;2023-08-21T11:59:36;30.50;53.10
36292;DHT22;22327;51.208;6.418;2023-08-21T12:02:37;30.40;53.20
36292;DHT22;22327;51.208;6.418;2023-08-21T12:05:43;30.30;52.80
36292;DHT22;22327;51.208;6.418;2023-08-21T12:08:44;30.20;53.40
36292;DHT22;22327;51.208;6.418;2023-08-21T12:11:45;30.10;53.90
36292;DHT22;22327;51.208;6.418;2023-08-21T12:14:46;30.20;54.20
36292;DHT22;22327;51.208;6.418;2023-08-21T12:17:46;30.30;53.60
36292;DHT22;22327;51.208;6.418;2023-08-21T12:20:47;30.50;54.50
36292;DHT22;22327;51.208;6.418;2023-08-21T12:23:47;30.50;54.20
36292;DHT22;22327;51.208;6.418;2023-08-21T12:26:48;30.50;53.80
36292;DHT22;22327;51.208;6.418;2023-08-21T12:29:48;30.40;53.80
36292;DHT22;22327;51.208;6.418;2023-08-21T12:32:49;30.40;54.20
36292;DHT22;22327;51.208;6.418;2023-08-21T12:35:49;30.40;55.10
36292;DHT22;22327;51.208;6.418;2023-08-21T12:38:50;30.50;54.50
36292;DHT22;22327;51.208;6.418;2023-08-21T12:41:50;30.50;54.10
36292;DHT22;22327;51.208;6.418;2023-08-21T12:44:51;30.60;53.90
36292;DHT22;22327;51.208;6.418;2023-08-21T12:47:51;30.40;53.30
36292;DHT22;22327;51.208;6.418;2023-08-21T12:50:52;30.20;53.80
36292;DHT22;22327;51.208;6.418;2023-08-21T12:53:53;30.10;54.00
36292;DHT22;22327;51.208;6.418;2023-08-21T12:56:53;30.20;54.20
36292;DHT22;22327;51.208;6.418;2023-08-21T12:59:54;30.40;54.60
36292;DHT22;22327;51.208;6.418;2023-08-21T13:02:54;30.40;53.90
36292;DHT22;22327;51.208;6.418;2023-08-21T13:05:55;30.40;53.50
36292;DHT22;22327;51.208;6.418;2023-08-21T13:08:55;30.40;54.30
36292;DHT22;22327;51.208;6.418;2023-08-21T13:11:56;30.40;53.70
36292;DHT22;22327;51.208;6.418;2023-08-21T13:14:56;30.40;53.70
36292;DHT22;22327;51.208;6.418;2023-08-21T13:17:58;30.50;53.90
36292;DHT22;22327;51.208;6.418;2023-08-21T13:20:59;30.80;54.30
36292;DHT22;22327;51.208;6.418;2023-08-21T13:24:00;30.90;53.60
36292;DHT22;22327;51.208;6.418;2023-08-21T13:27:00;31.10;53.50
36292;DHT22;22327;51.208;6.418;2023-08-21T13:30:01;31.20;52.30
36292;DHT22;22327;51.208;6.418;2023-08-21T13:33:01;31.30;51.60
36292;DHT22;22327;51.208;6.418;2023-08-21T13:36:04;31.30;51.50
36292;DHT22;22327;51.208;6.418;2023-08-21T13:39:04;31.30;51.60
36292;DHT22;22327;51.208;6.418;2023-08-21T13:42:06;31.50;51.80
36292;DHT22;22327;51.208;6.418;2023-08-21T13:45:08;31.50;51.70
36292;DHT22;22327;51.208;6.418;2023-08-21T13:48:11;31.50;51.90
36292;DHT22;22327;51.208;6.418;2023-08-21T13:51:12;31.70;52.10
36292;DHT22;22327;51.208;6.418;2023-08-21T13:54:12;31.90;51.80
36292;DHT22;22327;51.208;6.418;2023-08-21T13:57:13;32.00;51.90
36292;DHT22;22327;51.208;6.418;2023-08-21T14:00:13;32.00;51.80
36292;DHT22;22327;51.208;6.418;2023-08-21T14:03:14;32.10;52.40
36292;DHT22;22327;51.208;6.418;2023-08-21T14:06:14;32.30;52.20
36292;DHT22;22327;51.208;6.418;2023-08-21T14:09:15;32.20;51.10
36292;DHT22;22327;51.208;6.418;2023-08-21T14:12:15;32.10;51.40
36292;DHT22;22327;51.208;6.418;2023-08-21T14:15:16;32.20;51.10
36292;DHT22;22327;51.208;6.418;2023-08-21T14:18:18;32.30;52.10
36292;DHT22;22327;51.208;6.418;2023-08-21T14:21:18;32.40;50.10
36292;DHT22;22327;51.208;6.418;2023-08-21T14:24:19;32.40;50.10
36292;DHT22;22327;51.208;6.418;2023-08-21T14:27:19;32.40;50.40
36292;DHT22;22327;51.208;6.418;2023-08-21T14:30:21;32.30;50.60
36292;DHT22;22327;51.208;6.418;2023-08-21T14:33:21;32.00;51.10
36292;DHT22;22327;51.208;6.418;2023-08-21T14:36:22;32.00;51.00
36292;DHT22;22327;51.208;6.418;2023-08-21T14:39:23;32.10;51.50
36292;DHT22;22327;51.208;6.418;2023-08-21T14:42:24;32.20;51.40
36292;DHT22;22327;51.208;6.418;2023-08-21T14:45:24;32.30;51.20
36292;DHT22;22327;51.208;6.418;2023-08-21T14:48:25;32.30;50.60
36292;DHT22;22327;51.208;6.418;2023-08-21T14:51:26;32.40;50.60
36292;DHT22;22327;51.208;6.418;2023-08-21T14:54:26;32.50;50.40
36292;DHT22;22327;51.208;6.418;2023-08-21T14:57:27;32.40;49.90
36292;DHT22;22327;51.208;6.418;2023-08-21T15:00:27;32.20;49.50
36292;DHT22;22327;51.208;6.418;2023-08-21T15:03:28;31.70;50.40
36292;DHT22;22327;51.208;6.418;2023-08-21T15:06:28;31.60;51.50
36292;DHT22;22327;51.208;6.418;2023-08-21T15:09:29;31.50;51.30
36292;DHT22;22327;51.208;6.418;2023-08-21T15:12:29;31.30;51.10
36292;DHT22;22327;51.208;6.418;2023-08-21T15:15:30;31.30;51.50
36292;DHT22;22327;51.208;6.418;2023-08-21T15:18:30;31.20;51.70
36292;DHT22;22327;51.208;6.418;2023-08-21T15:21:31;31.10;51.60
36292;DHT22;22327;51.208;6.418;2023-08-21T15:24:32;31.10;52.50
36292;DHT22;22327;51.208;6.418;2023-08-21T15:27:32;31.00;52.10
36292;DHT22;22327;51.208;6.418;2023-08-21T15:30:33;31.00;51.70
36292;DHT22;22327;51.208;6.418;2023-08-21T15:33:33;30.90;51.90
36292;DHT22;22327;51.208;6.418;2023-08-21T15:36:34;30.90;52.40
36292;DHT22;22327;51.208;6.418;2023-08-21T15:39:34;30.90;52.60
36292;DHT22;22327;51.208;6.418;2023-08-21T15:42:35;31.00;52.50
36292;DHT22;22327;51.208;6.418;2023-08-21T15:45:35;31.00;52.60
36292;DHT22;22327;51.208;6.418;2023-08-21T15:48:36;30.90;52.40
36292;DHT22;22327;51.208;6.418;2023-08-21T15:51:36;31.00;51.70
36292;DHT22;22327;51.208;6.418;2023-08-21T15:54:37;30.90;52.40
36292;DHT22;22327;51.208;6.418;2023-08-21T15:57:37;30.90;52.00
36292;DHT22;22327;51.208;6.418;2023-08-21T16:00:38;30.80;52.30
36292;DHT22;22327;51.208;6.418;2023-08-21T16:03:38;30.80;52.60
36292;DHT22;22327;51.208;6.418;2023-08-21T16:06:39;30.70;52.50
36292;DHT22;22327;51.208;6.418;2023-08-21T16:09:40;30.60;52.60
36292;DHT22;22327;51.208;6.418;2023-08-21T16:12:41;30.60;53.60
36292;DHT22;22327;51.208;6.418;2023-08-21T16:15:42;30.50;53.00
36292;DHT22;22327;51.208;6.418;2023-08-21T16:18:42;30.50;53.30
36292;DHT22;22327;51.208;6.418;2023-08-21T16:21:43;30.30;53.40
36292;DHT22;22327;51.208;6.418;2023-08-21T16:24:43;30.20;53.70
36292;DHT22;22327;51.208;6.418;2023-08-21T16:27:44;30.10;53.80
36292;DHT22;22327;51.208;6.418;2023-08-21T16:30:44;29.90;53.40
36292;DHT22;22327;51.208;6.418;2023-08-21T16:33:45;29.70;54.30
36292;DHT22;22327;51.208;6.418;2023-08-21T16:36:45;29.60;54.40
36292;DHT22;22327;51.208;6.418;2023-08-21T16:39:46;29.40;54.90
36292;DHT22;22327;51.208;6.418;2023-08-21T16:42:46;29.40;55.00
36292;DHT22;22327;51.208;6.418;2023-08-21T16:45:47;29.40;54.80
36292;DHT22;22327;51.208;6.418;2023-08-21T16:48:47;29.30;55.20
36292;DHT22;22327;51.208;6.418;2023-08-21T16:51:48;29.30;54.90
36292;DHT22;22327;51.208;6.418;2023-08-21T16:54:48;29.30;55.10
36292;DHT22;22327;51.208;6.418;2023-08-21T16:57:49;29.30;55.10
36292;DHT22;22327;51.208;6.418;2023-08-21T17:00:49;29.20;55.10
36292;DHT22;22327;51.208;6.418;2023-08-21T17:03:53;29.20;55.40
36292;DHT22;22327;51.208;6.418;2023-08-21T17:06:54;29.20;55.50
36292;DHT22;22327;51.208;6.418;2023-08-21T17:09:54;29.10;55.60
36292;DHT22;22327;51.208;6.418;2023-08-21T17:12:55;29.10;55.90
36292;DHT22;22327;51.208;6.418;2023-08-21T17:15:55;29.10;55.60
36292;DHT22;22327;51.208;6.418;2023-08-21T17:18:56;29.10;55.50
36292;DHT22;22327;51.208;6.418;2023-08-21T17:21:56;29.00;55.70
36292;DHT22;22327;51.208;6.418;2023-08-21T17:24:57;29.00;55.80
36292;DHT22;22327;51.208;6.418;2023-08-21T17:27:59;28.90;55.40
36292;DHT22;22327;51.208;6.418;2023-08-21T17:31:01;28.90;55.50
36292;DHT22;22327;51.208;6.418;2023-08-21T17:34:01;29.00;55.70
36292;DHT22;22327;51.208;6.418;2023-08-21T17:37:02;28.80;55.40
36292;DHT22;22327;51.208;6.418;2023-08-21T17:40:02;28.80;55.70
36292;DHT22;22327;51.208;6.418;2023-08-21T17:43:06;28.80;56.30
36292;DHT22;22327;51.208;6.418;2023-08-21T17:46:07;28.80;56.90
36292;DHT22;22327;51.208;6.418;2023-08-21T17:49:07;28.70;57.40
36292;DHT22;22327;51.208;6.418;2023-08-21T17:52:08;28.60;57.80
36292;DHT22;22327;51.208;6.418;2023-08-21T17:55:09;28.60;58.10
36292;DHT22;22327;51.208;6.418;2023-08-21T17:58:09;28.50;58.30
36292;DHT22;22327;51.208;6.418;2023-08-21T18:01:10;28.50;58.70
36292;DHT22;22327;51.208;6.418;2023-08-21T18:04:10;28.40;58.90
36292;DHT22;22327;51.208;6.418;2023-08-21T18:07:11;28.40;58.90
36292;DHT22;22327;51.208;6.418;2023-08-21T18:10:11;28.20;58.90
36292;DHT22;22327;51.208;6.418;2023-08-21T18:13:12;28.10;59.10
36292;DHT22;22327;51.208;6.418;2023-08-21T18:16:12;28.10;59.00
36292;DHT22;22327;51.208;6.418;2023-08-21T18:19:13;28.00;59.10
36292;DHT22;22327;51.208;6.418;2023-08-21T18:22:14;28.00;59.10
36292;DHT22;22327;51.208;6.418;2023-08-21T18:25:14;27.90;59.00
36292;DHT22;22327;51.208;6.418;2023-08-21T18:28:15;27.90;59.60
36292;DHT22;22327;51.208;6.418;2023-08-21T18:31:19;27.80;59.80
36292;DHT22;22327;51.208;6.418;2023-08-21T18:34:20;27.60;60.00
36292;DHT22;22327;51.208;6.418;2023-08-21T18:37:20;27.60;60.20
36292;DHT22;22327;51.208;6.418;2023-08-21T18:40:21;27.60;60.40
36292;DHT22;22327;51.208;6.418;2023-08-21T18:43:21;27.50;60.70
36292;DHT22;22327;51.208;6.418;2023-08-21T18:46:22;27.50;61.00
36292;DHT22;22327;51.208;6.418;2023-08-21T18:49:22;27.40;61.50
36292;DHT22;22327;51.208;6.418;2023-08-21T18:52:23;27.40;61.80
36292;DHT22;22327;51.208;6.418;2023-08-21T18:55:23;27.20;62.50
36292;DHT22;22327;51.208;6.418;2023-08-21T18:58:24;27.10;63.20
36292;DHT22;22327;51.208;6.418;2023-08-21T19:01:24;27.00;64.10
36292;DHT22;22327;51.208;6.418;2023-08-21T19:04:25;27.00;64.60
36292;DHT22;22327;51.208;6.418;2023-08-21T19:07:25;26.90;65.00
36292;DHT22;22327;51.208;6.418;2023-08-21T19:10:26;26.80;65.50
36292;DHT22;22327;51.208;6.418;2023-08-21T19:13:27;26.60;66.40